Time;durP1;ratioP1;P1;durP2;ratioP2;P2;SDS_P1;SDS_P2;PMS_P1;PMS_P2;Temp;Humidity;BMP_temperature;BMP_pressure;BME280_temperature;BME280_humidity;BME280_pressure;Samples;Min_cycle;Max_cycle;Signal;HPM_P1;HPM_P2
2021/12/15 00:00:23;;;;;;;57.22;34.97;;;9.70;99.90;;;;;;5092759;28;20032;-60
2021/12/15 00:02:51;;;;;;;55.92;34.17;;;9.70;99.90;;;;;;5092819;28;20020;-60
2021/12/15 00:05:22;;;;;;;54.83;34.08;;;9.70;99.90;;;;;;5092666;28;20028;-60
2021/12/15 00:07:50;;;;;;;58.25;35.60;;;9.70;99.90;;;;;;5092779;28;20177;-60
2021/12/15 00:10:16;;;;;;;56.45;34.33;;;9.70;99.90;;;;;;5092672;28;20388;-60
2021/12/15 00:12:42;;;;;;;54.90;33.85;;;9.70;99.90;;;;;;5092467;28;20024;-60
2021/12/15 00:15:08;;;;;;;59.28;34.83;;;9.70;99.90;;;;;;5074289;28;20026;-60
2021/12/15 00:17:33;;;;;;;56.33;33.70;;;9.70;99.90;;;;;;5092683;28;20036;-60
2021/12/15 00:19:59;;;;;;;62.53;36.60;;;9.70;99.90;;;;;;5092729;28;20027;-60
2021/12/15 00:22:25;;;;;;;59.92;35.95;;;9.70;99.90;;;;;;5092554;28;20020;-60
2021/12/15 00:24:50;;;;;;;55.08;33.63;;;9.70;99.90;;;;;;5092394;28;20559;-60
2021/12/15 00:27:16;;;;;;;57.22;35.20;;;9.70;99.90;;;;;;5074385;28;20074;-60
2021/12/15 00:29:42;;;;;;;61.72;36.33;;;9.70;99.90;;;;;;5092588;28;20024;-60
2021/12/15 00:32:08;;;;;;;58.83;34.38;;;9.70;99.90;;;;;;5092729;28;20031;-60
2021/12/15 00:34:37;;;;;;;61.47;36.60;;;9.70;99.90;;;;;;5092374;28;20472;-60
2021/12/15 00:37:04;;;;;;;56.00;35.13;;;9.70;99.90;;;;;;5092464;28;20391;-60
2021/12/15 00:39:30;;;;;;;62.03;36.67;;;9.70;99.90;;;;;;5092380;28;20028;-60
2021/12/15 00:41:57;;;;;;;65.07;38.67;;;9.70;99.90;;;;;;5092341;28;20073;-60
2021/12/15 00:44:24;;;;;;;60.30;36.08;;;9.60;99.90;;;;;;5092073;28;20024;-60
2021/12/15 00:46:51;;;;;;;62.50;37.08;;;9.70;99.90;;;;;;5074306;28;20526;-60
2021/12/15 00:49:18;;;;;;;61.55;37.67;;;9.70;99.90;;;;;;5092430;28;20035;-60
2021/12/15 00:51:44;;;;;;;65.72;40.78;;;9.70;99.90;;;;;;5092363;28;20086;-60
2021/12/15 00:54:10;;;;;;;61.38;37.70;;;9.70;99.90;;;;;;5092120;28;20064;-60
2021/12/15 00:56:36;;;;;;;68.15;40.60;;;9.70;99.90;;;;;;5074302;28;20031;-60
2021/12/15 00:59:06;;;;;;;72.07;40.65;;;9.70;99.90;;;;;;5092473;28;20021;-60
2021/12/15 01:01:33;;;;;;;67.40;40.05;;;9.70;99.90;;;;;;5087177;28;20451;-60
2021/12/15 01:03:59;;;;;;;72.07;42.35;;;9.70;99.90;;;;;;5057812;28;20427;-60
2021/12/15 01:06:25;;;;;;;73.28;42.17;;;9.70;99.90;;;;;;5082474;28;20024;-59
2021/12/15 01:09:00;;;;;;;66.47;40.83;;;9.60;99.90;;;;;;5095763;28;20032;-60
2021/12/15 01:11:52;;;;;;;69.53;41.17;;;9.70;99.90;;;;;;5095713;28;20548;-60
2021/12/15 01:14:34;;;;;;;75.55;43.22;;;9.60;99.90;;;;;;5095954;28;20028;-60
2021/12/15 01:19:53;;;;;;;68.72;39.97;;;9.60;99.90;;;;;;5095957;28;20023;-60
2021/12/15 01:22:26;;;;;;;68.97;42.00;;;9.60;99.90;;;;;;5077470;28;20020;-60
2021/12/15 01:24:56;;;;;;;72.88;42.72;;;9.60;99.90;;;;;;5095462;28;20097;-60
2021/12/15 01:27:23;;;;;;;68.65;41.35;;;9.60;99.90;;;;;;5095461;28;20028;-60
2021/12/15 01:29:48;;;;;;;68.15;41.05;;;9.60;99.90;;;;;;5095381;28;20031;-60
2021/12/15 01:32:14;;;;;;;65.80;40.47;;;9.60;99.90;;;;;;5095619;28;20482;-60
2021/12/15 01:34:40;;;;;;;67.45;39.42;;;9.60;99.90;;;;;;5095312;28;20036;-60
2021/12/15 01:37:06;;;;;;;66.68;38.97;;;9.50;99.90;;;;;;5095084;28;20028;-60
2021/12/15 01:39:32;;;;;;;61.17;36.33;;;9.50;99.90;;;;;;5095308;28;20036;-60
2021/12/15 01:41:58;;;;;;;64.97;38.78;;;9.60;99.90;;;;;;5095117;28;20042;-60
2021/12/15 01:47:02;;;;;;;62.35;37.53;;;9.60;99.90;;;;;;5095448;28;20036;-60
2021/12/15 01:49:40;;;;;;;68.70;39.70;;;9.60;99.90;;;;;;5095115;28;20528;-60
2021/12/15 01:52:11;;;;;;;64.88;38.33;;;9.60;99.90;;;;;;5076964;28;20030;-60
2021/12/15 01:54:41;;;;;;;64.40;36.10;;;9.60;99.90;;;;;;5094794;28;20047;-60
2021/12/15 01:57:08;;;;;;;65.75;37.58;;;9.60;99.90;;;;;;5076814;28;20492;-60
2021/12/15 01:59:34;;;;;;;63.13;37.22;;;9.50;99.90;;;;;;5094763;28;20416;-60
2021/12/15 02:02:01;;;;;;;61.05;35.33;;;9.50;99.90;;;;;;5094853;28;20024;-60
2021/12/15 02:04:27;;;;;;;61.25;36.58;;;9.60;99.90;;;;;;5094691;28;20028;-60
2021/12/15 02:06:54;;;;;;;62.25;35.58;;;9.60;99.90;;;;;;5094761;28;20040;-60
2021/12/15 02:12:07;;;;;;;60.13;34.97;;;9.60;99.90;;;;;;5093815;28;20035;-60
2021/12/15 02:14:33;;;;;;;60.75;36.45;;;9.60;99.90;;;;;;5094684;28;20110;-60
2021/12/15 02:16:59;;;;;;;59.22;35.75;;;9.60;99.90;;;;;;5094247;28;20051;-60
2021/12/15 02:19:25;;;;;;;59.40;34.60;;;9.60;99.90;;;;;;5094433;28;20024;-60
2021/12/15 02:21:52;;;;;;;57.97;35.83;;;9.60;99.90;;;;;;5094524;28;20052;-60
2021/12/15 02:24:18;;;;;;;61.03;35.63;;;9.60;99.90;;;;;;5094193;28;20023;-60
2021/12/15 02:26:49;;;;;;;58.50;35.33;;;9.60;99.90;;;;;;5094398;28;20024;-60
2021/12/15 02:29:18;;;;;;;58.03;35.13;;;9.60;99.90;;;;;;5094439;28;20112;-60
2021/12/15 02:37:34;;;;;;;58.10;34.65;;;9.60;99.90;;;;;;5094154;28;20422;-60
2021/12/15 02:39:43;;;;;;;58.60;35.75;;;9.60;99.90;;;;;;5083270;28;20035;-60
2021/12/15 02:42:09;;;;;;;58.78;35.10;;;9.60;99.90;;;;;;5094192;28;20028;-60
2021/12/15 02:44:34;;;;;;;61.75;36.42;;;9.60;99.90;;;;;;5093709;28;20024;-60
2021/12/15 02:47:00;;;;;;;58.78;34.55;;;9.60;99.90;;;;;;5093905;28;20024;-60
2021/12/15 02:49:28;;;;;;;60.25;34.35;;;9.60;99.90;;;;;;5093905;28;20468;-60
2021/12/15 02:51:56;;;;;;;53.47;31.63;;;9.60;99.90;;;;;;5093790;28;20028;-60
2021/12/15 02:54:23;;;;;;;55.30;31.65;;;9.60;99.90;;;;;;5093763;28;20036;-60
2021/12/15 02:56:52;;;;;;;58.92;33.20;;;9.60;99.90;;;;;;5093705;28;20028;-60
2021/12/15 02:59:37;;;;;;;57.90;32.83;;;9.60;99.90;;;;;;5093615;28;20040;-60
2021/12/15 03:02:32;;;;;;;63.22;35.70;;;9.70;99.90;;;;;;5093694;28;20456;-60
2021/12/15 03:05:01;;;;;;;55.55;33.05;;;9.70;99.90;;;;;;5092212;28;20059;-60
2021/12/15 03:07:34;;;;;;;62.15;34.20;;;9.60;99.90;;;;;;5075221;28;20130;-60
2021/12/15 03:15:35;;;;;;;53.53;31.85;;;9.60;99.90;;;;;;5093475;28;20388;-60
2021/12/15 03:18:05;;;;;;;58.13;34.92;;;9.60;99.90;;;;;;5076204;28;20028;-60
2021/12/15 03:20:49;;;;;;;60.58;34.95;;;9.70;99.90;;;;;;5093616;28;20767;-60
2021/12/15 03:23:20;;;;;;;55.63;32.53;;;9.60;99.90;;;;;;5092976;28;20109;-60
2021/12/15 03:25:46;;;;;;;53.55;29.98;;;9.60;99.90;;;;;;5093256;28;20479;-60
2021/12/15 03:36:14;;;;;;;55.78;33.10;;;9.60;99.90;;;;;;5093028;28;20575;-60
2021/12/15 03:38:41;;;;;;;;;;;9.70;99.90;;;;;;5093441;28;20038;-60
2021/12/15 03:41:09;;;;;;;59.05;32.28;;;9.60;99.90;;;;;;5075169;28;19904;-60
2021/12/15 03:43:36;;;;;;;55.38;33.05;;;9.60;99.90;;;;;;5074705;28;20069;-60
2021/12/15 03:46:07;;;;;;;55.58;31.00;;;9.60;99.90;;;;;;5093094;28;20451;-60
2021/12/15 03:48:35;;;;;;;59.22;33.22;;;9.70;99.90;;;;;;5092770;28;20028;-60
2021/12/15 03:51:01;;;;;;;55.58;30.25;;;9.70;99.90;;;;;;5093007;28;20035;-60
2021/12/15 03:53:27;;;;;;;55.38;32.10;;;9.70;99.90;;;;;;5092722;28;20111;-60
2021/12/15 03:55:54;;;;;;;50.63;29.83;;;9.70;99.90;;;;;;5092914;28;20077;-60
2021/12/15 03:58:23;;;;;;;60.30;33.38;;;9.70;99.90;;;;;;5092848;28;20028;-60
2021/12/15 04:01:05;;;;;;;52.05;30.95;;;9.70;99.90;;;;;;5074872;28;20046;-60
2021/12/15 04:03:38;;;;;;;56.55;31.90;;;9.70;99.90;;;;;;5074451;28;20028;-60
2021/12/15 04:06:07;;;;;;;55.08;30.80;;;9.70;99.90;;;;;;5092784;28;20392;-60
2021/12/15 04:08:34;;;;;;;56.95;31.08;;;9.70;99.90;;;;;;5092677;28;20111;-60
2021/12/15 04:11:02;;;;;;;54.80;30.58;;;9.70;99.90;;;;;;5074688;28;20388;-60
2021/12/15 04:13:27;;;;;;;48.95;28.55;;;9.70;99.90;;;;;;5092579;28;20112;-60
2021/12/15 04:15:55;;;;;;;54.65;30.42;;;9.70;99.90;;;;;;5092432;28;20454;-60
2021/12/15 04:18:21;;;;;;;53.97;31.27;;;9.70;99.90;;;;;;5092378;28;20016;-60
2021/12/15 04:20:46;;;;;;;57.13;32.85;;;9.70;99.90;;;;;;5092710;28;20358;-60
2021/12/15 04:23:19;;;;;;;57.80;31.52;;;9.70;99.90;;;;;;5074496;28;20147;-60
2021/12/15 04:25:47;;;;;;;50.70;30.10;;;9.70;99.90;;;;;;5092786;28;20047;-60
2021/12/15 04:28:17;;;;;;;54.58;30.80;;;9.80;99.90;;;;;;5092557;28;20020;-60
2021/12/15 04:30:48;;;;;;;56.70;33.22;;;9.80;99.90;;;;;;5093057;28;20020;-60
2021/12/15 04:33:23;;;;;;;56.28;32.22;;;9.70;99.90;;;;;;5092365;28;20016;-60
2021/12/15 04:35:49;;;;;;;51.53;31.40;;;9.70;99.90;;;;;;5095855;28;20384;-60
2021/12/15 04:38:15;;;;;;;55.15;31.85;;;9.70;99.90;;;;;;5096453;28;20024;-60
2021/12/15 04:40:42;;;;;;;51.40;31.00;;;9.70;99.90;;;;;;5096497;28;20016;-60
2021/12/15 04:43:08;;;;;;;56.78;32.22;;;9.80;99.90;;;;;;5096426;28;20032;-60
2021/12/15 04:45:34;;;;;;;55.63;31.45;;;9.70;99.90;;;;;;5096134;28;20028;-60
2021/12/15 04:48:00;;;;;;;51.65;29.70;;;9.70;99.90;;;;;;5096346;28;20054;-60
2021/12/15 04:50:28;;;;;;;58.03;32.55;;;9.80;99.90;;;;;;5078099;28;20115;-60
2021/12/15 04:52:58;;;;;;;53.28;30.30;;;9.80;99.90;;;;;;5096238;28;20387;-59
2021/12/15 04:55:25;;;;;;;53.97;31.25;;;9.80;99.90;;;;;;5096065;28;20016;-60
2021/12/15 04:57:51;;;;;;;55.58;31.88;;;9.80;99.90;;;;;;5095933;28;20070;-60
2021/12/15 05:00:21;;;;;;;52.17;30.63;;;9.80;99.90;;;;;;5096213;28;20024;-60
2021/12/15 05:02:47;;;;;;;;;;;9.80;99.90;;;;;;5096347;28;20381;-61
2021/12/15 05:05:13;;;;;;;52.40;30.90;;;9.70;99.90;;;;;;5095781;28;19914;-60
2021/12/15 05:07:40;;;;;;;54.35;30.30;;;9.70;99.90;;;;;;5095812;28;20064;-60
2021/12/15 05:10:08;;;;;;;49.47;30.23;;;9.70;99.90;;;;;;5095931;28;20060;-60
2021/12/15 05:12:35;;;;;;;54.80;31.90;;;9.80;99.90;;;;;;5095555;28;20020;-60
2021/12/15 05:15:02;;;;;;;50.88;29.67;;;9.80;99.90;;;;;;5095754;28;20472;-60
2021/12/15 05:17:27;;;;;;;53.28;32.28;;;9.80;99.90;;;;;;5095426;28;20127;-60
2021/12/15 05:19:58;;;;;;;52.38;31.92;;;9.80;99.90;;;;;;5095608;28;20149;-60
2021/12/15 05:22:24;;;;;;;55.50;31.10;;;9.80;99.90;;;;;;5095685;28;20491;-60
2021/12/15 05:24:50;;;;;;;51.50;29.58;;;9.80;99.90;;;;;;5095404;28;20032;-60
2021/12/15 05:27:36;;;;;;;52.15;30.10;;;9.80;99.90;;;;;;5095436;28;20035;-60
2021/12/15 05:30:05;;;;;;;51.60;30.02;;;9.80;99.90;;;;;;5095655;28;20435;-60
2021/12/15 05:32:30;;;;;;;50.67;30.02;;;9.80;99.90;;;;;;5095410;28;20475;-60
2021/12/15 05:34:59;;;;;;;56.88;32.92;;;9.80;99.90;;;;;;5095233;28;20028;-60
2021/12/15 05:37:25;;;;;;;55.03;31.08;;;9.80;99.90;;;;;;5076942;28;20020;-60
2021/12/15 05:39:53;;;;;;;58.88;33.30;;;9.80;99.90;;;;;;5077131;28;20030;-60
2021/12/15 05:42:21;;;;;;;55.42;33.38;;;9.80;99.90;;;;;;5095290;28;20025;-60
2021/12/15 05:44:48;;;;;;;57.60;31.92;;;9.80;99.90;;;;;;5095010;28;20063;-60
2021/12/15 05:47:13;;;;;;;59.63;34.95;;;9.80;99.90;;;;;;5094952;28;20028;-59
2021/12/15 05:49:39;;;;;;;62.10;33.00;;;9.80;99.90;;;;;;5094997;28;20131;-60
2021/12/15 05:52:05;;;;;;;58.70;32.40;;;9.80;99.90;;;;;;5094968;28;20024;-60
2021/12/15 05:54:31;;;;;;;57.50;31.77;;;9.80;99.90;;;;;;5095128;28;20059;-60
2021/12/15 05:56:57;;;;;;;57.88;33.33;;;9.80;99.90;;;;;;5076953;28;20063;-60
2021/12/15 05:59:24;;;;;;;54.05;29.88;;;9.80;99.90;;;;;;5094888;28;20032;-60
2021/12/15 06:01:50;;;;;;;52.58;30.80;;;9.90;99.90;;;;;;5076742;28;20450;-60
2021/12/15 06:04:16;;;;;;;52.83;30.70;;;9.90;99.90;;;;;;5094702;28;20020;-60
2021/12/15 06:06:41;;;;;;;55.47;31.60;;;9.90;99.90;;;;;;5094623;28;20055;-60
2021/12/15 06:09:08;;;;;;;52.92;30.92;;;9.90;99.90;;;;;;5094728;28;20020;-60
2021/12/15 06:11:35;;;;;;;55.55;31.23;;;9.90;99.90;;;;;;5094794;28;20032;-60
2021/12/15 06:14:00;;;;;;;54.78;29.40;;;9.90;99.90;;;;;;5094521;28;20028;-60
2021/12/15 06:16:26;;;;;;;53.85;30.52;;;9.90;99.90;;;;;;5094332;28;20052;-60
2021/12/15 06:18:52;;;;;;;54.83;31.50;;;9.90;99.90;;;;;;5093258;28;20020;-60
2021/12/15 06:21:27;;;;;;;56.35;32.85;;;9.90;99.90;;;;;;5094497;28;20020;-60
2021/12/15 06:23:53;;;;;;;55.03;33.22;;;9.90;99.90;;;;;;5076237;28;20111;-60
2021/12/15 06:26:19;;;;;;;57.40;32.47;;;9.90;99.90;;;;;;5094471;28;20582;-61
2021/12/15 06:28:46;;;;;;;60.40;32.63;;;9.90;99.90;;;;;;5094291;28;20028;-60
2021/12/15 06:31:14;;;;;;;62.58;34.53;;;9.90;99.90;;;;;;5094134;28;20119;-60
2021/12/15 06:33:40;;;;;;;60.42;34.40;;;9.90;99.90;;;;;;5075154;28;20031;-60
2021/12/15 06:36:07;;;;;;;57.75;33.85;;;9.90;99.90;;;;;;5075066;28;20024;-60
2021/12/15 06:38:38;;;;;;;58.95;33.35;;;9.90;99.90;;;;;;5091650;28;20067;-60
2021/12/15 06:41:05;;;;;;;61.33;33.30;;;9.90;99.90;;;;;;5086958;28;20020;-60
2021/12/15 06:43:32;;;;;;;59.67;32.83;;;9.90;99.90;;;;;;5054436;28;20020;-60
2021/12/15 07:03:20;;;;;;;66.35;33.97;;;9.90;99.90;;;;;;5069327;28;20024;-60
2021/12/15 07:05:46;;;;;;;69.45;35.38;;;9.90;99.90;;;;;;5092083;28;20077;-60
2021/12/15 07:08:13;;;;;;;69.30;36.20;;;9.90;99.90;;;;;;5088107;28;20032;-60
2021/12/15 07:10:43;;;;;;;72.35;37.75;;;9.90;99.90;;;;;;5072875;28;20044;-60
2021/12/15 07:13:09;;;;;;;67.82;35.90;;;9.90;99.90;;;;;;5088645;28;20107;-60
2021/12/15 07:15:37;;;;;;;66.45;34.92;;;9.90;99.90;;;;;;5099305;28;20043;-60
2021/12/15 07:18:06;;;;;;;72.72;37.05;;;9.90;99.90;;;;;;5110447;28;20031;-60
2021/12/15 07:20:51;;;;;;;62.97;33.70;;;10.00;99.90;;;;;;5086781;28;20103;-60
2021/12/15 07:23:20;;;;;;;71.50;37.42;;;10.00;99.90;;;;;;5089750;28;20509;-60
2021/12/15 07:26:00;;;;;;;75.00;35.95;;;10.00;99.90;;;;;;5088936;28;20464;-60
2021/12/15 07:28:26;;;;;;;74.70;37.83;;;10.00;99.90;;;;;;5088272;28;20073;-60
2021/12/15 07:30:52;;;;;;;73.70;36.28;;;10.00;99.90;;;;;;5089178;28;20024;-60
2021/12/15 07:33:17;;;;;;;77.60;38.97;;;10.00;99.90;;;;;;5091674;28;20012;-60
2021/12/15 07:35:43;;;;;;;76.72;36.40;;;9.90;99.90;;;;;;5091743;28;20045;-60
2021/12/15 07:38:09;;;;;;;72.68;35.90;;;10.00;99.90;;;;;;5087307;28;20436;-60
2021/12/15 07:41:03;;;;;;;75.38;37.53;;;10.00;99.90;;;;;;5088007;28;20395;-61
2021/12/15 07:43:46;;;;;;;74.88;38.10;;;10.00;99.90;;;;;;5087898;28;20031;-60
2021/12/15 07:46:12;;;;;;;80.75;37.17;;;10.00;99.90;;;;;;5090194;28;20491;-60
2021/12/15 07:48:39;;;;;;;83.72;39.30;;;9.90;99.90;;;;;;5090340;28;20019;-60
2021/12/15 07:51:08;;;;;;;79.75;39.10;;;10.00;99.90;;;;;;5088175;28;20102;-60
2021/12/15 07:53:35;;;;;;;75.88;36.75;;;9.90;99.90;;;;;;5082823;28;20023;-60
2021/12/15 07:56:01;;;;;;;82.15;39.15;;;10.00;99.90;;;;;;5091023;28;20530;-60
2021/12/15 07:58:28;;;;;;;74.20;35.75;;;10.00;99.90;;;;;;5088770;28;20028;-60
2021/12/15 08:00:55;;;;;;;74.78;36.55;;;10.00;99.90;;;;;;5083454;28;20008;-60
2021/12/15 08:03:27;;;;;;;78.15;37.60;;;10.00;99.90;;;;;;5088417;28;20024;-61
2021/12/15 08:06:10;;;;;;;76.05;36.85;;;10.00;99.90;;;;;;5088944;28;20035;-60
2021/12/15 08:08:36;;;;;;;82.18;37.40;;;10.00;99.90;;;;;;5094551;28;20041;-60
2021/12/15 08:11:02;;;;;;;76.30;37.60;;;10.00;99.90;;;;;;5116330;28;20023;-60
2021/12/15 08:13:31;;;;;;;80.93;37.25;;;10.00;99.90;;;;;;5100013;28;20032;-60
2021/12/15 08:15:57;;;;;;;80.93;39.42;;;10.00;99.90;;;;;;5092234;28;20031;-60
2021/12/15 08:18:23;;;;;;;82.25;38.30;;;10.00;99.90;;;;;;5092509;28;20484;-60
2021/12/15 08:20:50;;;;;;;80.65;38.42;;;10.00;99.90;;;;;;5089710;28;20042;-59
2021/12/15 08:23:19;;;;;;;83.60;38.88;;;10.00;99.90;;;;;;5089400;28;20048;-60
2021/12/15 08:26:03;;;;;;;;;;;;;;;;;;;;;
2021/12/15 08:28:39;;;;;;;83.85;39.33;;;10.00;99.90;;;;;;5086678;28;20028;-60
2021/12/15 08:31:05;;;;;;;81.63;38.92;;;10.00;99.90;;;;;;5089699;28;20065;-60
2021/12/15 08:33:32;;;;;;;86.20;42.38;;;10.00;99.90;;;;;;5092096;28;20020;-60
2021/12/15 08:36:30;;;;;;;;;;;;;;;;;;;;;
2021/12/15 08:38:55;;;;;;;83.65;39.90;;;10.10;99.90;;;;;;5096214;28;20464;-61
2021/12/15 08:41:27;;;;;;;75.70;37.75;;;10.00;99.90;;;;;;5078064;28;20114;-60
2021/12/15 08:43:53;;;;;;;81.75;39.83;;;10.10;99.90;;;;;;5096023;28;20077;-60
2021/12/15 08:46:25;;;;;;;90.43;42.58;;;10.10;99.90;;;;;;5095633;28;20073;-60
2021/12/15 08:48:53;;;;;;;77.45;38.17;;;10.10;99.90;;;;;;5096017;28;20103;-60
2021/12/15 08:51:39;;;;;;;85.72;41.08;;;10.10;99.90;;;;;;5095901;28;20024;-61
2021/12/15 08:54:08;;;;;;;78.13;38.72;;;10.10;99.90;;;;;;5077870;28;20081;-60
2021/12/15 08:56:37;;;;;;;81.22;38.95;;;10.10;99.90;;;;;;5095760;28;20020;-60
2021/12/15 08:59:04;;;;;;;79.68;37.58;;;10.10;99.90;;;;;;5095499;28;20028;-61
2021/12/15 09:01:41;;;;;;;78.53;37.65;;;10.10;99.90;;;;;;5095791;28;20077;-60
2021/12/15 09:04:32;;;;;;;80.97;38.60;;;10.10;99.90;;;;;;5095730;28;20024;-60
2021/12/15 09:07:16;;;;;;;84.07;37.75;;;10.20;99.90;;;;;;5077139;28;20097;-60
2021/12/15 09:09:42;;;;;;;81.97;38.72;;;10.20;99.90;;;;;;5095600;28;20035;-60
2021/12/15 09:12:08;;;;;;;81.15;39.90;;;10.20;99.90;;;;;;5095447;28;20391;-60
2021/12/15 09:14:34;;;;;;;75.63;36.63;;;10.20;99.90;;;;;;5094858;28;20050;-60
2021/12/15 09:17:03;;;;;;;78.15;38.15;;;10.20;99.90;;;;;;5077286;28;20504;-60
2021/12/15 09:19:30;;;;;;;79.23;38.43;;;10.20;99.90;;;;;;5095212;28;20024;-60
2021/12/15 09:21:57;;;;;;;78.03;39.03;;;10.20;99.90;;;;;;5095173;28;20490;-60
2021/12/15 09:24:25;;;;;;;81.90;37.88;;;10.20;99.90;;;;;;5095286;28;20012;-60
2021/12/15 09:26:51;;;;;;;74.50;37.85;;;10.20;99.90;;;;;;5095510;28;20016;-60
2021/12/15 09:29:17;;;;;;;77.80;39.90;;;10.20;99.90;;;;;;5077163;28;20494;-60
2021/12/15 09:31:43;;;;;;;79.63;39.30;;;10.20;99.90;;;;;;5095366;28;20084;-60
2021/12/15 09:34:11;;;;;;;72.00;38.05;;;10.30;99.90;;;;;;5095277;28;20073;-60
2021/12/15 09:36:37;;;;;;;81.18;40.03;;;10.30;99.90;;;;;;5095324;28;20016;-60
2021/12/15 09:39:10;;;;;;;78.43;39.50;;;10.30;99.90;;;;;;5089752;28;20036;-60
2021/12/15 09:41:37;;;;;;;75.75;39.30;;;10.30;99.90;;;;;;5088844;28;20020;-60
2021/12/15 09:44:08;;;;;;;72.18;39.40;;;10.30;99.90;;;;;;5092917;28;20038;-60
2021/12/15 10:10:44;;;;;;;70.80;40.60;;;10.50;99.90;;;;;;5094431;28;20054;-60
2021/12/15 10:19:24;;;;;;;69.18;37.03;;;10.70;99.90;;;;;;5093438;28;20063;-60
2021/12/15 10:22:02;;;;;;;63.67;36.15;;;10.70;99.90;;;;;;5093216;28;20020;-60
2021/12/15 10:24:56;;;;;;;70.85;39.88;;;10.70;99.90;;;;;;5087858;28;20468;-60
2021/12/15 10:27:36;;;;;;;63.95;37.42;;;10.80;99.90;;;;;;5092046;28;20024;-60
2021/12/15 10:30:09;;;;;;;69.72;38.63;;;10.80;99.90;;;;;;5094461;28;20029;-60
2021/12/15 10:32:38;;;;;;;70.10;39.13;;;10.80;99.90;;;;;;5093363;28;20036;-60
2021/12/15 10:35:09;;;;;;;70.63;40.00;;;10.80;99.90;;;;;;5094162;28;20024;-60
2021/12/15 10:37:36;;;;;;;62.78;35.58;;;10.80;99.90;;;;;;5090616;28;20052;-60
2021/12/15 10:40:12;;;;;;;65.38;37.60;;;10.80;99.90;;;;;;5062614;28;20104;-60
2021/12/15 10:42:38;;;;;;;58.70;35.08;;;10.90;99.90;;;;;;5091538;28;20035;-60
2021/12/15 10:45:10;;;;;;;61.78;34.13;;;10.90;99.90;;;;;;5093965;28;20028;-60
2021/12/15 10:47:41;;;;;;;63.72;36.28;;;11.00;99.90;;;;;;5094065;28;20027;-60
2021/12/15 10:50:13;;;;;;;57.67;34.53;;;11.00;99.90;;;;;;5075618;28;20026;-60
2021/12/15 10:52:58;;;;;;;62.67;36.60;;;11.00;99.90;;;;;;5075729;28;20016;-60
2021/12/15 10:55:52;;;;;;;;;;;;;;;;;;;;;
2021/12/15 10:58:38;;;;;;;59.42;33.72;;;11.10;99.90;;;;;;5089879;28;20024;-60
2021/12/15 11:01:38;;;;;;;62.53;36.55;;;11.10;99.90;;;;;;5092774;28;20016;-60
2021/12/15 11:04:46;;;;;;;;;;;;;;;;;;;;;
2021/12/15 11:10:52;;;;;;;53.72;33.85;;;11.20;99.90;;;;;;5093184;28;20024;-60
2021/12/15 11:13:18;;;;;;;55.60;33.88;;;11.20;99.90;;;;;;5093258;28;20054;-60
2021/12/15 11:15:49;;;;;;;57.53;34.38;;;11.20;99.90;;;;;;5093271;28;20047;-60
2021/12/15 11:18:25;;;;;;;52.15;33.25;;;11.20;99.90;;;;;;5075626;28;20027;-60
2021/12/15 11:21:23;;;;;;;59.10;36.65;;;11.20;99.90;;;;;;5093328;28;20035;-60
2021/12/15 11:24:07;;;;;;;54.03;34.70;;;11.30;99.90;;;;;;5093282;28;20522;-60
2021/12/15 11:26:33;;;;;;;49.50;32.00;;;11.20;99.90;;;;;;5092991;28;20052;-60
2021/12/15 11:28:59;;;;;;;53.13;34.33;;;11.20;99.90;;;;;;5093232;28;20020;-60
2021/12/15 11:31:28;;;;;;;54.80;34.78;;;11.30;99.90;;;;;;5093093;28;20086;-60
2021/12/15 11:33:57;;;;;;;52.57;34.83;;;11.30;99.90;;;;;;5092090;28;20471;-60
2021/12/15 11:36:30;;;;;;;51.07;33.43;;;11.30;99.90;;;;;;5092292;28;20020;-60
2021/12/15 11:39:13;;;;;;;50.33;32.03;;;11.30;99.90;;;;;;5075055;28;20024;-60
2021/12/15 11:41:42;;;;;;;47.78;32.75;;;11.30;99.90;;;;;;5072943;28;20018;-60
2021/12/15 11:44:12;;;;;;;49.93;34.10;;;11.40;99.90;;;;;;5079735;28;20023;-60
2021/12/15 11:46:48;;;;;;;49.35;32.97;;;11.40;99.90;;;;;;5088678;28;20016;-60
2021/12/15 11:49:27;;;;;;;55.35;33.70;;;11.50;99.90;;;;;;5093130;28;20059;-60
2021/12/15 11:52:10;;;;;;;;;;;;;;;;;;;;;
2021/12/15 11:55:11;;;;;;;46.38;31.23;;;11.50;99.90;;;;;;5092671;28;20024;-60
2021/12/15 11:57:37;;;;;;;46.95;31.48;;;11.60;99.90;;;;;;5092535;28;20023;-60
2021/12/15 12:00:09;;;;;;;43.33;31.15;;;11.60;99.90;;;;;;5091550;28;20020;-60
2021/12/15 12:02:38;;;;;;;41.30;29.52;;;11.60;99.90;;;;;;5086678;28;20015;-60
2021/12/15 12:05:20;;;;;;;46.67;32.63;;;11.60;99.90;;;;;;5088611;28;20481;-61
2021/12/15 12:08:16;;;;;;;43.70;30.05;;;11.70;99.90;;;;;;5089891;28;20081;-60
2021/12/15 12:10:49;;;;;;;42.35;30.88;;;11.80;99.90;;;;;;5067186;28;20040;-60
2021/12/15 12:13:25;;;;;;;44.25;29.00;;;11.80;99.90;;;;;;5081276;28;20020;-60
2021/12/15 12:15:58;;;;;;;42.13;28.55;;;11.80;99.90;;;;;;5087275;28;20024;-61
2021/12/15 12:18:27;;;;;;;37.17;27.05;;;11.90;99.90;;;;;;5087376;28;20039;-60
2021/12/15 12:21:02;;;;;;;35.60;25.85;;;11.90;99.90;;;;;;5087623;28;20099;-60
2021/12/15 12:23:30;;;;;;;37.15;27.55;;;11.90;99.90;;;;;;5090172;28;20032;-60
2021/12/15 12:26:01;;;;;;;42.45;29.80;;;11.90;99.90;;;;;;5087498;28;20472;-60
2021/12/15 12:28:30;;;;;;;39.40;28.02;;;11.90;99.90;;;;;;5087305;28;20032;-60
2021/12/15 12:31:12;;;;;;;39.88;26.90;;;11.90;99.90;;;;;;5084558;28;20073;-60
2021/12/15 12:34:10;;;;;;;39.92;28.92;;;11.90;99.90;;;;;;5084400;28;20039;-60
2021/12/15 12:36:36;;;;;;;36.05;26.83;;;11.90;99.90;;;;;;5090239;28;20468;-60
2021/12/15 12:39:10;;;;;;;38.30;27.55;;;11.90;99.90;;;;;;5087585;28;20095;-60
2021/12/15 12:41:49;;;;;;;41.10;28.75;;;11.90;99.90;;;;;;5090295;28;20115;-60
2021/12/15 12:44:15;;;;;;;40.45;29.10;;;11.90;99.90;;;;;;5089509;28;20028;-60
2021/12/15 12:47:07;;;;;;;;;;;;;;;;;;;;;
2021/12/15 13:01:02;;;;;;;35.85;26.35;;;11.70;99.90;;;;;;5095261;28;20464;-60
2021/12/15 13:03:37;;;;;;;33.75;25.17;;;11.70;99.90;;;;;;5095045;28;20028;-61
2021/12/15 13:06:14;;;;;;;36.55;27.15;;;11.70;99.90;;;;;;5095176;28;20107;-60
2021/12/15 13:08:43;;;;;;;41.92;29.75;;;11.70;99.90;;;;;;5093645;28;20021;-60
2021/12/15 13:11:34;;;;;;;41.10;28.95;;;11.80;99.90;;;;;;5093824;28;20016;-60
2021/12/15 13:14:09;;;;;;;43.63;30.15;;;11.80;99.90;;;;;;5090960;28;20690;-60
2021/12/15 13:16:39;;;;;;;37.30;27.35;;;11.70;99.90;;;;;;5072630;28;20044;-60
2021/12/15 13:19:19;;;;;;;34.17;26.13;;;11.70;99.90;;;;;;5093766;28;20016;-60
2021/12/15 13:30:55;;;;;;;38.95;27.20;;;11.70;99.90;;;;;;5079993;28;20040;-61
2021/12/15 13:33:37;;;;;;;37.85;27.23;;;11.70;99.90;;;;;;5072715;28;20033;-60
2021/12/15 13:36:17;;;;;;;34.58;25.77;;;11.70;99.90;;;;;;5073888;28;20024;-60
2021/12/15 13:38:55;;;;;;;35.08;26.90;;;11.70;99.90;;;;;;5072458;28;20020;-61
2021/12/15 13:41:49;;;;;;;32.30;24.77;;;11.70;99.90;;;;;;5073891;28;20094;-60
2021/12/15 13:44:30;;;;;;;33.53;24.10;;;11.70;99.90;;;;;;5074374;28;20070;-61
2021/12/15 13:47:09;;;;;;;31.50;25.10;;;11.70;99.90;;;;;;5074043;28;20051;-60
2021/12/15 13:49:43;;;;;;;33.92;24.20;;;11.70;99.90;;;;;;5074055;28;20392;-60
2021/12/15 13:52:25;;;;;;;29.63;22.20;;;11.70;99.90;;;;;;5074167;28;20039;-60
2021/12/15 13:55:03;;;;;;;28.98;22.20;;;11.80;99.90;;;;;;5073904;28;20113;-61
2021/12/15 13:57:36;;;;;;;26.50;19.70;;;11.70;99.90;;;;;;5073277;28;20024;-61
2021/12/15 14:00:23;;;;;;;;;;;;;;;;;;;;;
2021/12/15 14:03:22;;;;;;;;;;;;;;;;;;;;;
2021/12/15 14:06:03;;;;;;;25.35;19.65;;;11.80;99.90;;;;;;5073520;28;20017;-60
2021/12/15 14:08:48;;;;;;;26.20;18.80;;;11.80;99.90;;;;;;5091925;28;20027;-61
2021/12/15 14:11:20;;;;;;;21.98;16.95;;;11.70;99.90;;;;;;5093637;28;20050;-61
2021/12/15 14:14:10;;;;;;;20.60;16.45;;;11.80;99.90;;;;;;5093621;28;20399;-61
2021/12/15 14:16:40;;;;;;;23.38;17.67;;;11.80;99.90;;;;;;5093396;28;20503;-60
2021/12/15 14:19:11;;;;;;;18.33;14.90;;;11.80;99.90;;;;;;5093471;28;20107;-61
2021/12/15 14:21:38;;;;;;;20.10;15.27;;;11.80;99.90;;;;;;5093675;28;20028;-61
2021/12/15 14:24:06;;;;;;;21.73;15.35;;;11.80;99.90;;;;;;5093515;28;20472;-60
2021/12/15 14:29:29;;;;;;;19.13;14.45;;;11.80;99.90;;;;;;5093307;28;20488;-60
2021/12/15 14:31:58;;;;;;;17.73;14.52;;;11.80;99.90;;;;;;5093207;28;20039;-60
2021/12/15 14:34:33;;;;;;;23.77;14.68;;;11.80;99.90;;;;;;5093117;28;20024;-61
2021/12/15 14:37:11;;;;;;;19.60;13.93;;;11.80;99.90;;;;;;5093270;28;20483;-60
2021/12/15 14:39:40;;;;;;;19.58;14.57;;;11.80;99.90;;;;;;5091897;28;20036;-61
2021/12/15 14:42:11;;;;;;;19.27;14.45;;;11.70;99.90;;;;;;5073795;28;20044;-60
2021/12/15 14:44:40;;;;;;;20.35;14.75;;;11.70;99.90;;;;;;5091832;28;20028;-61